createdAt,value
2019-04-29T00:00:45.619Z,99.40
2019-04-29T00:01:45.607Z,99.40
2019-04-29T00:02:45.594Z,99.30
2019-04-29T00:03:45.589Z,99.11
2019-04-29T00:04:45.583Z,99.50
2019-04-29T00:05:45.574Z,99.40
2019-04-29T00:06:45.566Z,99.59
2019-04-29T00:07:45.553Z,99.02
2019-04-29T00:08:45.545Z,98.64
2019-04-29T00:09:45.531Z,98.55
2019-04-29T00:10:45.521Z,98.55
2019-04-29T00:11:45.514Z,98.64
2019-04-29T00:12:45.507Z,98.93
2019-04-29T00:13:45.499Z,99.50
2019-04-29T00:14:45.491Z,99.50
2019-04-29T00:15:45.488Z,99.40
2019-04-29T00:16:45.467Z,99.40
2019-04-29T00:17:45.463Z,99.30
2019-04-29T00:18:45.451Z,99.88
2019-04-29T00:19:45.441Z,99.97
2019-04-29T00:20:45.437Z,99.69
2019-04-29T00:21:45.416Z,99.99
2019-04-29T00:22:45.407Z,99.59
2019-04-29T00:23:45.398Z,99.99
2019-04-29T00:24:45.389Z,99.99
2019-04-29T00:25:45.385Z,99.88
2019-04-29T00:26:45.375Z,99.88
2019-04-29T00:27:45.366Z,99.88
2019-04-29T00:28:45.365Z,99.88
2019-04-29T00:29:45.343Z,99.99
2019-04-29T00:30:45.336Z,99.78
2019-04-29T00:31:45.329Z,99.78
2019-04-29T00:32:45.319Z,99.59
2019-04-29T00:33:45.308Z,99.50
2019-04-29T00:34:45.295Z,99.21
2019-04-29T00:35:45.285Z,98.17
2019-04-29T00:36:45.278Z,97.97
2019-04-29T00:37:45.268Z,98.07
2019-04-29T00:38:45.265Z,97.97
2019-04-29T00:39:45.251Z,97.78
2019-04-29T00:40:45.241Z,98.07
2019-04-29T00:41:45.226Z,97.97
2019-04-29T00:42:45.221Z,97.50
2019-04-29T00:43:45.210Z,97.97
2019-04-29T00:44:45.201Z,98.26
2019-04-29T00:45:45.194Z,97.92
2019-04-29T00:46:45.191Z,97.36
2019-04-29T00:47:45.173Z,97.74
2019-04-29T00:48:45.165Z,98.02
2019-04-29T00:49:45.158Z,98.21
2019-04-29T00:50:45.148Z,98.21
2019-04-29T00:51:45.136Z,98.21
2019-04-29T00:52:45.127Z,98.02
2019-04-29T00:53:45.113Z,98.12
2019-04-29T00:54:45.103Z,97.92
2019-04-29T00:55:45.099Z,97.92
2019-04-29T00:56:45.092Z,97.27
2019-04-29T00:57:45.077Z,97.07
2019-04-29T00:58:45.068Z,97.17
2019-04-29T00:59:45.064Z,97.07
2019-04-29T01:00:45.056Z,97.27
2019-04-29T01:01:45.040Z,97.45
2019-04-29T01:02:45.029Z,98.21
2019-04-29T01:03:45.027Z,98.02
2019-04-29T01:04:45.014Z,97.83
2019-04-29T01:05:45.063Z,97.83
2019-04-29T01:06:44.991Z,97.74
2019-04-29T01:07:44.979Z,98.02
2019-04-29T01:08:44.972Z,98.02
2019-04-29T01:09:44.963Z,98.31
2019-04-29T01:10:44.955Z,97.83
2019-04-29T01:11:44.946Z,97.92
2019-04-29T01:12:44.933Z,98.02
2019-04-29T01:13:44.926Z,97.74
2019-04-29T01:14:44.918Z,97.74
2019-04-29T01:15:44.909Z,97.74
2019-04-29T01:16:44.907Z,98.02
2019-04-29T01:17:44.888Z,98.02
2019-04-29T01:18:44.877Z,97.92
2019-04-29T01:19:44.870Z,98.02
2019-04-29T01:20:44.859Z,98.40
2019-04-29T01:21:44.846Z,98.59
2019-04-29T01:22:44.835Z,99.16
2019-04-29T01:23:44.823Z,98.59
2019-04-29T01:24:44.814Z,98.88
2019-04-29T01:25:44.808Z,98.12
2019-04-29T01:26:44.798Z,98.31
2019-04-29T01:27:44.789Z,97.55
2019-04-29T01:28:44.780Z,97.92
2019-04-29T01:29:44.769Z,97.92
2019-04-29T01:30:44.756Z,98.31
2019-04-29T01:31:44.749Z,98.31
2019-04-29T01:32:44.739Z,98.40
2019-04-29T01:33:44.733Z,98.40
2019-04-29T01:34:44.721Z,98.12
2019-04-29T01:35:44.709Z,98.12
2019-04-29T01:36:44.708Z,98.40
2019-04-29T01:37:44.694Z,99.16
2019-04-29T01:38:44.682Z,99.26
2019-04-29T01:39:44.674Z,99.54
2019-04-29T01:40:44.661Z,99.83
2019-04-29T01:41:44.647Z,99.99
2019-04-29T01:42:44.640Z,99.83
2019-04-29T01:43:44.629Z,99.99
2019-04-29T01:44:44.620Z,99.73
2019-04-29T01:45:44.611Z,99.73
2019-04-29T01:46:44.604Z,99.73
2019-04-29T01:47:44.602Z,99.54
2019-04-29T01:48:44.587Z,99.83
2019-04-29T01:49:44.572Z,99.35
2019-04-29T01:50:44.560Z,98.97
2019-04-29T01:51:44.555Z,98.88
2019-04-29T01:52:44.546Z,98.69
2019-04-29T01:53:44.532Z,99.07
2019-04-29T01:54:44.582Z,98.59
2019-04-29T01:55:44.512Z,98.21
2019-04-29T01:56:44.501Z,98.21
2019-04-29T01:57:44.495Z,98.07
2019-04-29T01:58:44.486Z,98.16
2019-04-29T01:59:44.475Z,98.07
2019-04-29T02:00:44.466Z,97.60
2019-04-29T02:01:44.452Z,97.88
2019-04-29T02:02:44.441Z,97.78
2019-04-29T02:03:44.436Z,97.60
2019-04-29T02:04:44.426Z,97.88
2019-04-29T02:05:44.417Z,97.88
2019-04-29T02:06:44.409Z,98.16
2019-04-29T02:07:44.395Z,97.97
2019-04-29T02:08:44.385Z,98.16
2019-04-29T02:09:44.379Z,97.88
2019-04-29T02:10:44.369Z,97.97
2019-04-29T02:11:44.357Z,97.88
2019-04-29T02:12:44.347Z,98.26
2019-04-29T02:13:44.334Z,98.54
2019-04-29T02:14:44.325Z,98.92
2019-04-29T02:15:44.318Z,98.92
2019-04-29T02:16:44.306Z,98.26
2019-04-29T02:17:44.300Z,98.54
2019-04-29T02:18:44.296Z,98.35
2019-04-29T02:19:44.279Z,98.54
2019-04-29T02:20:44.269Z,98.73
2019-04-29T02:21:44.254Z,98.54
2019-04-29T02:22:44.244Z,98.26
2019-04-29T02:23:44.238Z,98.35
2019-04-29T02:24:44.228Z,98.26
2019-04-29T02:25:44.213Z,98.54
2019-04-29T02:26:44.203Z,98.07
2019-04-29T02:27:44.197Z,98.64
2019-04-29T02:28:44.189Z,98.92
2019-04-29T02:29:44.180Z,98.45
2019-04-29T02:30:44.180Z,97.97
2019-04-29T02:31:44.166Z,98.35
2019-04-29T02:32:44.154Z,98.16
2019-04-29T02:33:44.138Z,98.54
2019-04-29T02:34:44.128Z,98.35
2019-04-29T02:35:44.117Z,98.54
2019-04-29T02:36:44.105Z,98.73
2019-04-29T02:37:44.100Z,98.35
2019-04-29T02:38:44.091Z,98.35
2019-04-29T02:39:44.077Z,98.07
2019-04-29T02:40:44.069Z,98.26
2019-04-29T02:41:44.060Z,97.78
2019-04-29T02:42:44.054Z,98.07
2019-04-29T02:43:44.043Z,98.73
2019-04-29T02:44:44.034Z,98.54
2019-04-29T02:45:44.021Z,99.02
2019-04-29T02:46:44.008Z,99.40
2019-04-29T02:47:43.999Z,99.30
2019-04-29T02:48:43.991Z,99.49
2019-04-29T02:49:43.985Z,99.68
2019-04-29T02:50:43.972Z,99.68
2019-04-29T02:51:43.963Z,99.58
2019-04-29T02:52:43.951Z,99.49
2019-04-29T02:53:43.936Z,99.77
2019-04-29T02:54:43.932Z,99.97
2019-04-29T02:55:43.921Z,99.68
2019-04-29T02:56:43.914Z,99.49
2019-04-29T02:57:43.895Z,99.11
2019-04-29T02:58:43.886Z,99.40
2019-04-29T02:59:43.878Z,99.30
2019-04-29T03:00:43.867Z,99.58
2019-04-29T03:01:43.862Z,99.21
2019-04-29T03:02:43.907Z,99.21
2019-04-29T03:03:43.840Z,99.30
2019-04-29T03:04:43.832Z,99.58
2019-04-29T03:05:43.816Z,99.21
2019-04-29T03:06:43.807Z,99.40
2019-04-29T03:07:43.797Z,98.83
2019-04-29T03:08:43.789Z,98.35
2019-04-29T03:09:43.778Z,98.45
2019-04-29T03:10:43.770Z,98.26
2019-04-29T03:11:43.760Z,98.45
2019-04-29T03:12:43.744Z,98.54
2019-04-29T03:13:43.739Z,98.54
2019-04-29T03:14:43.728Z,98.54
2019-04-29T03:15:43.720Z,99.02
2019-04-29T03:16:43.710Z,98.73
2019-04-29T03:17:43.696Z,98.35
2019-04-29T03:18:43.687Z,98.16
2019-04-29T03:19:43.672Z,98.16
2019-04-29T03:20:43.664Z,97.74
2019-04-29T03:21:43.666Z,97.88
2019-04-29T03:22:43.647Z,97.50
2019-04-29T03:23:43.640Z,97.74
2019-04-29T03:24:43.629Z,98.68
2019-04-29T03:25:43.622Z,98.68
2019-04-29T03:26:43.614Z,98.68
2019-04-29T03:27:43.612Z,98.97
2019-04-29T03:28:43.592Z,99.26
2019-04-29T03:29:43.573Z,98.87
2019-04-29T03:30:43.572Z,98.68
2019-04-29T03:31:43.554Z,98.30
2019-04-29T03:32:43.549Z,98.49
2019-04-29T03:33:43.572Z,98.83
2019-04-29T03:34:43.524Z,98.92
2019-04-29T03:35:43.516Z,98.87
2019-04-29T03:36:43.505Z,98.68
2019-04-29T03:37:43.489Z,98.68
2019-04-29T03:38:43.480Z,98.45
2019-04-29T03:39:43.472Z,98.40
2019-04-29T03:40:43.463Z,98.49
2019-04-29T03:41:43.456Z,98.78
2019-04-29T03:42:43.449Z,98.87
2019-04-29T03:43:43.432Z,98.97
2019-04-29T03:44:43.423Z,98.87
2019-04-29T03:45:43.414Z,98.87
2019-04-29T03:46:43.406Z,98.49
2019-04-29T03:47:43.398Z,98.49
2019-04-29T03:48:43.488Z,98.68
2019-04-29T03:49:43.367Z,98.49
2019-04-29T03:50:43.360Z,98.87
2019-04-29T03:51:43.348Z,99.16
2019-04-29T03:52:43.345Z,99.26
2019-04-29T03:53:43.330Z,99.35
2019-04-29T03:54:43.321Z,99.44
2019-04-29T03:55:43.314Z,99.35
2019-04-29T03:56:43.304Z,99.82
2019-04-29T03:57:43.290Z,99.49
2019-04-29T03:58:43.284Z,99.68
2019-04-29T03:59:43.271Z,99.35
2019-04-29T04:00:44.282Z,99.68
2019-04-29T04:01:43.248Z,99.58
2019-04-29T04:02:43.237Z,99.49
2019-04-29T04:03:43.227Z,99.49
2019-04-29T04:04:43.215Z,99.49
2019-04-29T04:05:43.207Z,99.30
2019-04-29T04:06:43.205Z,99.11
2019-04-29T04:07:43.187Z,98.78
2019-04-29T04:08:43.204Z,99.02
2019-04-29T04:09:43.166Z,98.87
2019-04-29T04:10:43.158Z,98.49
2019-04-29T04:11:43.152Z,98.40
2019-04-29T04:12:43.134Z,98.73
2019-04-29T04:13:43.128Z,98.59
2019-04-29T04:14:43.118Z,98.92
2019-04-29T04:15:43.104Z,98.87
2019-04-29T04:16:43.095Z,99.16
2019-04-29T04:17:43.088Z,99.21
2019-04-29T04:18:43.082Z,99.54
2019-04-29T04:19:43.066Z,98.73
2019-04-29T04:20:43.053Z,98.92
2019-04-29T04:21:43.039Z,98.54
2019-04-29T04:22:43.037Z,98.92
2019-04-29T04:23:43.023Z,99.30
2019-04-29T04:24:43.012Z,99.49
2019-04-29T04:25:43.005Z,99.40
2019-04-29T04:26:43.001Z,99.49
2019-04-29T04:27:42.984Z,99.40
2019-04-29T04:28:42.974Z,99.11
2019-04-29T04:29:42.958Z,99.40
2019-04-29T04:30:42.951Z,99.40
2019-04-29T04:31:42.944Z,99.49
2019-04-29T04:32:42.934Z,98.92
2019-04-29T04:33:42.918Z,98.92
2019-04-29T04:34:42.909Z,98.54
2019-04-29T04:35:42.906Z,98.92
2019-04-29T04:36:42.949Z,98.73
2019-04-29T04:37:42.884Z,98.54
2019-04-29T04:38:42.876Z,98.73
2019-04-29T04:39:42.864Z,98.21
2019-04-29T04:40:42.856Z,98.12
2019-04-29T04:41:42.841Z,98.40
2019-04-29T04:42:42.838Z,98.31
2019-04-29T04:43:42.819Z,98.02
2019-04-29T04:44:42.811Z,98.93
2019-04-29T04:45:42.807Z,98.26
2019-04-29T04:46:42.795Z,98.36
2019-04-29T04:47:42.783Z,98.03
2019-04-29T04:48:42.771Z,97.64
2019-04-29T04:49:42.768Z,98.17
2019-04-29T04:50:42.757Z,97.22
2019-04-29T04:51:42.754Z,96.26
2019-04-29T04:52:42.762Z,96.70
2019-04-29T04:53:42.730Z,95.65
2019-04-29T04:54:42.719Z,94.79
2019-04-29T04:55:42.711Z,94.56
2019-04-29T04:56:42.701Z,94.27
2019-04-29T04:57:42.697Z,93.55
2019-04-29T04:58:42.688Z,92.98
2019-04-29T04:59:42.677Z,92.46
2019-04-29T05:00:42.670Z,91.31
2019-04-29T05:01:42.656Z,89.50
2019-04-29T05:02:42.648Z,88.59
2019-04-29T05:03:42.645Z,88.50
2019-04-29T05:04:42.637Z,88.12
2019-04-29T05:05:42.927Z,87.30
2019-04-29T05:06:42.618Z,87.11
2019-04-29T05:07:42.613Z,85.58
2019-04-29T05:08:42.606Z,85.01
2019-04-29T05:09:42.603Z,83.81
2019-04-29T05:10:42.594Z,83.14
2019-04-29T05:11:42.591Z,82.61
2019-04-29T05:12:42.583Z,81.66
2019-04-29T05:13:42.570Z,80.99
2019-04-29T05:14:42.564Z,79.88
2019-04-29T05:15:42.556Z,79.69
2019-04-29T05:16:42.608Z,78.78
2019-04-29T05:17:42.545Z,78.01
2019-04-29T05:18:42.542Z,77.82
2019-04-29T05:19:42.530Z,77.09
2019-04-29T05:20:42.525Z,76.42
2019-04-29T05:21:42.523Z,75.79
2019-04-29T05:22:42.519Z,75.02
2019-04-29T05:23:42.515Z,73.59
2019-04-29T05:24:42.508Z,73.50
2019-04-29T05:25:42.499Z,73.24
2019-04-29T05:26:42.494Z,72.96
2019-04-29T05:27:42.489Z,72.52
2019-04-29T05:28:42.486Z,71.17
2019-04-29T05:29:42.484Z,71.56
2019-04-29T05:30:42.480Z,70.83
2019-04-29T05:31:42.477Z,70.25
2019-04-29T05:32:42.469Z,70.15
2019-04-29T05:33:42.460Z,69.62
2019-04-29T05:34:46.608Z,68.66
2019-04-29T05:35:42.456Z,68.12
2019-04-29T05:36:42.452Z,67.63
2019-04-29T05:37:42.443Z,67.00
2019-04-29T05:38:42.441Z,66.84
2019-04-29T05:39:42.442Z,65.11
2019-04-29T05:40:42.436Z,64.85
2019-04-29T05:41:42.438Z,63.99
2019-04-29T05:42:42.433Z,63.25
2019-04-29T05:43:42.433Z,62.58
2019-04-29T05:44:42.431Z,61.55
2019-04-29T05:45:46.314Z,61.10
2019-04-29T05:46:42.426Z,60.91
2019-04-29T05:47:42.417Z,60.33
2019-04-29T05:48:42.416Z,60.17
2019-04-29T05:49:42.868Z,59.30
2019-04-29T05:50:42.415Z,59.69
2019-04-29T05:51:42.409Z,59.23
2019-04-29T05:52:42.409Z,58.37
2019-04-29T05:53:42.410Z,57.89
2019-04-29T05:54:42.409Z,56.92
2019-04-29T05:55:42.412Z,56.95
2019-04-29T05:56:42.412Z,56.85
2019-04-29T05:57:42.406Z,56.85
2019-04-29T05:58:42.406Z,56.59
2019-04-29T05:59:43.361Z,56.59
2019-04-29T06:00:42.411Z,56.40
2019-04-29T06:01:42.592Z,55.46
2019-04-29T06:02:42.409Z,55.36
2019-04-29T06:03:44.272Z,54.66
2019-04-29T06:04:42.414Z,54.96
2019-04-29T06:05:42.402Z,54.79
2019-04-29T06:06:42.405Z,55.05
2019-04-29T06:07:42.410Z,54.40
2019-04-29T06:08:42.410Z,54.33
2019-04-29T06:09:42.407Z,54.33
2019-04-29T06:10:42.412Z,53.20
2019-04-29T06:11:42.413Z,52.62
2019-04-29T06:12:44.459Z,52.72
2019-04-29T06:13:42.420Z,53.34
2019-04-29T06:14:42.422Z,53.67
2019-04-29T06:15:42.423Z,55.54
2019-04-29T06:16:42.426Z,55.56
2019-04-29T06:17:44.828Z,55.54
2019-04-29T06:18:42.425Z,55.34
2019-04-29T06:19:42.427Z,55.44
2019-04-29T06:20:42.428Z,55.49
2019-04-29T06:21:42.435Z,55.68
2019-04-29T06:22:43.525Z,54.49
2019-04-29T06:23:42.439Z,53.69
2019-04-29T06:24:42.439Z,53.42
2019-04-29T06:25:42.446Z,53.30
2019-04-29T06:26:43.714Z,52.84
2019-04-29T06:27:42.457Z,52.97
2019-04-29T06:28:42.462Z,52.02
2019-04-29T06:29:42.460Z,51.73
2019-04-29T06:30:45.085Z,50.98
2019-04-29T06:31:42.462Z,50.33
2019-04-29T06:32:42.472Z,50.57
2019-04-29T06:33:42.473Z,50.57
2019-04-29T06:34:42.478Z,50.18
2019-04-29T06:35:43.367Z,50.28
2019-04-29T06:36:42.489Z,50.04
2019-04-29T06:37:42.489Z,50.04
2019-04-29T06:38:42.493Z,49.54
2019-04-29T06:39:42.500Z,50.14
2019-04-29T06:40:42.506Z,49.75
2019-04-29T06:41:45.445Z,49.00
2019-04-29T06:42:42.511Z,49.19
2019-04-29T06:43:42.514Z,48.71
2019-04-29T06:44:44.369Z,48.64
2019-04-29T06:45:42.526Z,48.06
2019-04-29T06:46:42.534Z,47.60
2019-04-29T06:47:42.539Z,46.96
2019-04-29T06:48:42.543Z,46.26
2019-04-29T06:49:42.545Z,46.01
2019-04-29T06:50:42.549Z,45.07
2019-04-29T06:51:42.558Z,44.68
2019-04-29T06:52:42.563Z,44.19
2019-04-29T06:53:42.572Z,43.63
2019-04-29T06:54:42.579Z,43.73
2019-04-29T06:55:42.580Z,42.97
2019-04-29T06:56:42.586Z,42.87
2019-04-29T06:57:42.594Z,42.56
2019-04-29T06:58:42.607Z,42.58
2019-04-29T06:59:43.034Z,42.60
2019-04-29T07:00:42.613Z,42.11
2019-04-29T07:01:42.618Z,41.85
2019-04-29T07:02:45.554Z,41.38
2019-04-29T07:03:42.625Z,40.41
2019-04-29T07:04:42.634Z,40.50
2019-04-29T07:05:42.642Z,39.80
2019-04-29T07:06:56.295Z,40.48
2019-04-29T07:07:42.659Z,40.29
2019-04-29T07:08:42.666Z,40.37
2019-04-29T07:09:42.670Z,41.14
2019-04-29T07:10:42.752Z,41.14
2019-04-29T07:11:42.687Z,40.93
2019-04-29T07:12:47.137Z,41.22
2019-04-29T07:13:42.696Z,41.42
2019-04-29T07:14:42.702Z,41.49
2019-04-29T07:15:43.468Z,42.19
2019-04-29T07:16:42.712Z,42.10
2019-04-29T07:17:43.043Z,41.83
2019-04-29T07:18:48.249Z,41.28
2019-04-29T07:19:42.742Z,42.05
2019-04-29T07:20:42.749Z,41.86
2019-04-29T07:21:47.092Z,42.49
2019-04-29T07:22:42.757Z,42.02
2019-04-29T07:23:42.763Z,41.53
2019-04-29T07:24:42.772Z,41.16
2019-04-29T07:25:42.782Z,40.88
2019-04-29T07:26:42.787Z,40.75
2019-04-29T07:27:44.259Z,40.97
2019-04-29T07:28:42.801Z,40.11
2019-04-29T07:29:42.815Z,40.01
2019-04-29T07:31:00.726Z,39.16
2019-04-29T07:31:42.823Z,39.18
2019-04-29T07:32:47.096Z,38.98
2019-04-29T07:33:42.836Z,38.75
2019-04-29T07:34:42.843Z,38.91
2019-04-29T07:35:47.367Z,40.08
2019-04-29T07:36:42.870Z,40.56
2019-04-29T07:37:42.873Z,40.50
2019-04-29T07:38:46.467Z,42.36
2019-04-29T07:39:42.888Z,43.45
2019-04-29T07:40:43.333Z,43.62
2019-04-29T07:41:42.897Z,44.54
2019-04-29T07:42:42.905Z,44.19
2019-04-29T07:43:44.170Z,43.44
2019-04-29T07:44:44.089Z,42.41
2019-04-29T07:45:44.439Z,41.40
2019-04-29T07:46:56.107Z,39.84
2019-04-29T07:47:55.755Z,39.94
2019-04-29T07:48:43.791Z,39.94
2019-04-29T07:49:42.970Z,38.81
2019-04-29T07:50:42.981Z,38.73
2019-04-29T07:51:42.989Z,38.51
2019-04-29T07:52:45.716Z,38.55
2019-04-29T07:53:45.390Z,38.38
2019-04-29T07:54:43.012Z,37.41
2019-04-29T07:55:43.017Z,36.73
2019-04-29T07:56:43.688Z,36.34
2019-04-29T07:57:43.042Z,36.05
2019-04-29T07:58:43.053Z,35.58
2019-04-29T07:59:43.063Z,35.81
2019-04-29T08:00:44.544Z,35.61
2019-04-29T08:01:43.080Z,34.93
2019-04-29T08:02:43.092Z,35.14
2019-04-29T08:03:43.116Z,34.36
2019-04-29T08:04:43.116Z,33.58
2019-04-29T08:05:43.123Z,33.50
2019-04-29T08:06:44.787Z,33.51
2019-04-29T08:07:43.145Z,33.14
2019-04-29T08:08:54.299Z,32.86
2019-04-29T08:09:44.265Z,31.90
2019-04-29T08:10:54.075Z,32.02
2019-04-29T08:11:43.190Z,31.02
2019-04-29T08:12:43.201Z,30.76
2019-04-29T08:13:43.210Z,30.14
2019-04-29T08:14:43.224Z,30.65
2019-04-29T08:15:43.683Z,30.68
2019-04-29T08:16:43.250Z,30.08
2019-04-29T08:17:43.255Z,30.19
2019-04-29T08:18:43.267Z,29.59
2019-04-29T08:19:43.284Z,29.20
2019-04-29T08:20:43.295Z,28.79
2019-04-29T08:21:45.394Z,29.38
2019-04-29T08:22:43.325Z,29.37
2019-04-29T08:23:43.339Z,29.83
2019-04-29T08:24:45.967Z,30.45
2019-04-29T08:25:43.361Z,29.96
2019-04-29T08:26:47.326Z,29.49
2019-04-29T08:27:43.873Z,29.11
2019-04-29T08:28:43.398Z,28.41
2019-04-29T08:29:43.414Z,28.59
2019-04-29T08:30:45.857Z,29.36
2019-04-29T08:31:43.437Z,30.71
2019-04-29T08:32:43.450Z,31.90
2019-04-29T08:33:46.803Z,32.03
2019-04-29T08:34:43.486Z,32.18
2019-04-29T08:35:46.608Z,33.53
2019-04-29T08:36:43.517Z,36.52
2019-04-29T08:37:43.543Z,39.80
2019-04-29T08:38:43.534Z,40.79
2019-04-29T08:39:43.542Z,41.26
2019-04-29T08:40:45.232Z,39.96
2019-04-29T08:41:43.572Z,39.06
2019-04-29T08:42:46.775Z,38.35
2019-04-29T08:43:43.599Z,36.24
2019-04-29T08:44:43.613Z,34.52
2019-04-29T08:45:43.619Z,33.10
2019-04-29T08:46:44.463Z,31.45
2019-04-29T08:47:43.651Z,31.51
2019-04-29T08:48:45.905Z,29.83
2019-04-29T08:49:43.672Z,29.28
2019-04-29T08:50:43.685Z,30.00
2019-04-29T08:51:43.694Z,31.33
2019-04-29T08:52:43.709Z,32.18
2019-04-29T08:53:43.728Z,33.59
2019-04-29T08:54:43.738Z,35.05
2019-04-29T08:55:43.749Z,36.95
2019-04-29T08:57:01.878Z,37.22
2019-04-29T08:57:43.769Z,37.84
2019-04-29T08:58:44.402Z,36.94
2019-04-29T08:59:43.795Z,35.61
2019-04-29T09:00:43.804Z,34.84
2019-04-29T09:01:43.818Z,34.80
2019-04-29T09:02:47.012Z,33.34
2019-04-29T09:03:43.838Z,32.55
2019-04-29T09:04:53.287Z,32.31
2019-04-29T09:05:46.110Z,33.40
2019-04-29T09:06:43.875Z,33.05
2019-04-29T09:07:43.883Z,33.14
2019-04-29T09:08:54.995Z,32.73
2019-04-29T09:09:43.901Z,33.18
2019-04-29T09:10:43.913Z,33.93
2019-04-29T09:11:47.936Z,34.95
2019-04-29T09:12:43.934Z,35.91
2019-04-29T09:13:43.947Z,37.16
2019-04-29T09:14:43.958Z,37.01
2019-04-29T09:15:43.969Z,38.34
2019-04-29T09:16:43.978Z,39.20
2019-04-29T09:17:43.983Z,39.67
2019-04-29T09:18:43.990Z,39.82
2019-04-29T09:19:44.005Z,41.25
2019-04-29T09:20:44.012Z,41.72
2019-04-29T09:21:44.016Z,42.35
2019-04-29T09:22:44.025Z,43.10
2019-04-29T09:23:44.026Z,43.64
2019-04-29T09:24:48.106Z,45.38
2019-04-29T09:25:44.044Z,45.96
2019-04-29T09:26:44.048Z,47.05
2019-04-29T09:27:45.103Z,46.95
2019-04-29T09:28:44.061Z,46.85
2019-04-29T09:29:46.409Z,47.05
2019-04-29T09:30:44.067Z,47.14
2019-04-29T09:31:46.692Z,46.83
2019-04-29T09:32:44.083Z,47.80
2019-04-29T09:33:48.858Z,47.58
2019-04-29T09:34:44.095Z,48.21
2019-04-29T09:35:44.095Z,46.83
2019-04-29T09:36:48.275Z,45.05
2019-04-29T09:37:44.109Z,43.57
2019-04-29T09:38:44.113Z,41.59
2019-04-29T09:39:44.117Z,39.72
2019-04-29T09:40:45.774Z,38.32
2019-04-29T09:41:44.123Z,36.58
2019-04-29T09:42:45.513Z,35.36
2019-04-29T09:43:44.143Z,34.33
2019-04-29T09:44:44.997Z,33.28
2019-04-29T09:45:44.154Z,32.06
2019-04-29T09:46:44.162Z,30.19
2019-04-29T09:47:44.168Z,29.79
2019-04-29T09:48:44.178Z,29.70
2019-04-29T09:49:44.191Z,29.03
2019-04-29T09:50:44.208Z,28.26
2019-04-29T09:51:44.208Z,28.67
2019-04-29T09:52:44.220Z,28.40
2019-04-29T09:53:44.237Z,28.11
2019-04-29T09:54:44.249Z,27.33
2019-04-29T09:55:44.263Z,27.11
2019-04-29T09:56:44.280Z,26.40
2019-04-29T09:57:44.284Z,25.88
2019-04-29T09:58:44.303Z,26.89
2019-04-29T09:59:44.310Z,27.94
2019-04-29T10:00:44.338Z,29.34
2019-04-29T10:01:44.349Z,29.16
2019-04-29T10:02:44.357Z,29.28
2019-04-29T10:03:44.370Z,29.03
2019-04-29T10:04:55.836Z,27.92
2019-04-29T10:05:44.393Z,28.34
2019-04-29T10:06:44.406Z,28.86
2019-04-29T10:07:44.424Z,30.83
2019-04-29T10:08:44.438Z,31.60
2019-04-29T10:09:56.495Z,31.76
2019-04-29T10:10:44.462Z,32.71
2019-04-29T10:11:44.480Z,34.00
2019-04-29T10:12:44.494Z,34.09
2019-04-29T10:13:44.509Z,33.98
2019-04-29T10:14:44.523Z,34.35
2019-04-29T10:15:44.536Z,34.90
2019-04-29T10:16:44.552Z,35.06
2019-04-29T10:17:45.809Z,36.10
2019-04-29T10:18:44.568Z,37.15
2019-04-29T10:19:44.576Z,38.00
2019-04-29T10:20:44.586Z,38.29
2019-04-29T10:21:44.601Z,38.95
2019-04-29T10:22:44.611Z,40.15
2019-04-29T10:23:44.616Z,39.82
2019-04-29T10:24:44.628Z,38.01
2019-04-29T10:25:44.639Z,36.85
2019-04-29T10:26:44.648Z,35.50
2019-04-29T10:27:44.662Z,35.52
2019-04-29T10:28:44.668Z,34.79
2019-04-29T10:29:44.673Z,33.62
2019-04-29T10:30:44.681Z,32.94
2019-04-29T10:31:44.691Z,32.94
2019-04-29T10:32:44.704Z,33.07
2019-04-29T10:33:44.715Z,32.52
2019-04-29T10:34:44.725Z,32.19
2019-04-29T10:35:45.208Z,31.87
2019-04-29T10:36:44.742Z,32.35
2019-04-29T10:37:44.747Z,34.46
2019-04-29T10:38:45.941Z,36.19
2019-04-29T10:39:44.780Z,37.24
2019-04-29T10:40:44.783Z,38.29
2019-04-29T10:41:44.788Z,38.37
2019-04-29T10:42:44.801Z,39.72
2019-04-29T10:43:44.813Z,40.01
2019-04-29T10:44:44.819Z,40.69
2019-04-29T10:45:44.833Z,41.27
2019-04-29T10:46:44.840Z,41.66
2019-04-29T10:47:44.843Z,41.47
2019-04-29T10:48:44.850Z,41.95
2019-04-29T10:49:44.853Z,42.34
2019-04-29T10:50:47.071Z,41.95
2019-04-29T10:51:44.869Z,41.00
2019-04-29T10:52:44.875Z,40.29
2019-04-29T10:53:46.748Z,38.79
2019-04-29T10:54:44.894Z,38.89
2019-04-29T10:55:44.895Z,39.74
2019-04-29T10:56:44.902Z,40.61
2019-04-29T10:57:49.750Z,40.99
2019-04-29T10:58:44.918Z,41.17
2019-04-29T10:59:46.116Z,41.52
2019-04-29T11:00:44.929Z,42.66
2019-04-29T11:01:44.929Z,42.93
2019-04-29T11:02:49.367Z,43.15
2019-04-29T11:03:44.945Z,43.44
2019-04-29T11:04:44.949Z,43.65
2019-04-29T11:05:59.935Z,43.54
2019-04-29T11:06:44.963Z,43.27
2019-04-29T11:07:44.972Z,42.41
2019-04-29T11:08:44.975Z,41.70
2019-04-29T11:09:46.323Z,41.24
2019-04-29T11:10:44.981Z,41.38
2019-04-29T11:11:44.991Z,40.44
2019-04-29T11:12:44.997Z,39.96
2019-04-29T11:13:49.863Z,38.29
2019-04-29T11:14:45.003Z,38.37
2019-04-29T11:15:49.276Z,38.64
2019-04-29T11:16:46.977Z,38.91
2019-04-29T11:17:46.423Z,39.74
2019-04-29T11:18:45.032Z,40.09
2019-04-29T11:19:45.040Z,41.33
2019-04-29T11:20:48.927Z,42.47
2019-04-29T11:21:45.049Z,42.88
2019-04-29T11:22:45.054Z,42.80
2019-04-29T11:23:45.063Z,42.30
2019-04-29T11:24:45.071Z,42.57
2019-04-29T11:25:50.981Z,42.74
2019-04-29T11:26:45.089Z,43.18
2019-04-29T11:27:45.085Z,43.85
2019-04-29T11:28:47.008Z,44.92
2019-04-29T11:29:45.099Z,45.40
2019-04-29T11:30:45.105Z,45.98
2019-04-29T11:31:48.970Z,47.05
2019-04-29T11:32:45.111Z,47.41
2019-04-29T11:33:45.112Z,47.50
2019-04-29T11:34:48.604Z,47.70
2019-04-29T11:35:45.119Z,47.96
2019-04-29T11:36:45.123Z,48.06
2019-04-29T11:37:45.131Z,48.44
2019-04-29T11:38:45.138Z,47.87
2019-04-29T11:39:46.195Z,47.67
2019-04-29T11:40:45.145Z,48.06
2019-04-29T11:41:45.144Z,48.16
2019-04-29T11:42:45.150Z,48.16
2019-04-29T11:43:46.756Z,47.96
2019-04-29T11:44:45.162Z,48.18
2019-04-29T11:45:45.162Z,48.79
2019-04-29T11:46:49.004Z,48.88
2019-04-29T11:47:45.163Z,48.11
2019-04-29T11:48:45.167Z,48.30
2019-04-29T11:49:47.808Z,47.81
2019-04-29T11:50:49.404Z,47.80
2019-04-29T11:52:07.666Z,48.18
2019-04-29T11:52:45.183Z,47.89
2019-04-29T11:53:45.183Z,48.16
2019-04-29T11:54:45.186Z,48.61
2019-04-29T11:55:46.448Z,48.79
2019-04-29T11:56:45.188Z,48.57
2019-04-29T11:57:45.201Z,49.24
2019-04-29T11:58:45.198Z,50.21
2019-04-29T11:59:45.211Z,51.43
2019-04-29T12:00:45.199Z,50.57
2019-04-29T12:01:50.888Z,51.24
2019-04-29T12:02:46.186Z,50.76
2019-04-29T12:03:45.212Z,50.47
2019-04-29T12:04:45.214Z,50.37
2019-04-29T12:05:46.242Z,50.47
2019-04-29T12:06:45.211Z,51.07
2019-04-29T12:07:45.215Z,51.34
2019-04-29T12:08:48.162Z,50.76
2019-04-29T12:09:45.223Z,51.14
2019-04-29T12:10:52.083Z,50.76
2019-04-29T12:11:45.223Z,51.05
2019-04-29T12:12:47.762Z,50.85
2019-04-29T12:13:45.224Z,51.05
2019-04-29T12:14:45.223Z,50.78
2019-04-29T12:15:49.192Z,50.98
2019-04-29T12:16:45.230Z,51.56
2019-04-29T12:17:45.228Z,51.53
2019-04-29T12:18:45.228Z,52.11
2019-04-29T12:19:45.233Z,51.79
2019-04-29T12:20:45.236Z,51.70
2019-04-29T12:21:45.241Z,51.98
2019-04-29T12:22:48.550Z,51.98
2019-04-29T12:23:47.753Z,52.66
2019-04-29T12:24:45.244Z,52.95
2019-04-29T12:25:45.241Z,53.05
2019-04-29T12:26:45.257Z,53.55
2019-04-29T12:27:45.240Z,52.97
2019-04-29T12:28:45.267Z,52.91
2019-04-29T12:29:48.978Z,52.71
2019-04-29T12:30:45.249Z,51.94
2019-04-29T12:31:49.350Z,50.90
2019-04-29T12:32:45.247Z,51.39
2019-04-29T12:33:45.251Z,51.48
2019-04-29T12:34:45.252Z,51.75
2019-04-29T12:35:51.952Z,51.75
2019-04-29T12:36:55.943Z,51.75
2019-04-29T12:37:45.254Z,51.65
2019-04-29T12:38:49.845Z,50.88
2019-04-29T12:39:45.302Z,51.17
2019-04-29T12:40:45.543Z,51.26
2019-04-29T12:41:49.206Z,50.78
2019-04-29T12:42:45.269Z,51.46
2019-04-29T12:43:48.703Z,50.88
2019-04-29T12:44:45.822Z,50.90
2019-04-29T12:45:45.264Z,51.10
2019-04-29T12:46:45.264Z,50.93
2019-04-29T12:47:45.273Z,50.26
2019-04-29T12:48:45.272Z,50.16
2019-04-29T12:49:46.433Z,49.90
2019-04-29T12:50:45.269Z,49.02
2019-04-29T12:51:45.308Z,48.81
2019-04-29T12:52:45.277Z,48.71